.
WxDataArchive / Data Records for 2011-01-02
2011-01-01 January 2011 2011-01-03

Data Records for Sunday, 02 January 2011

Time	Temp	Chill	HIndex	Humid	Dewpt	 Wind 	HiWind	WindDir	Rain 	Barom 
-----	----	-----	------	-----	-----	------	------	-------	-----	----- 
00:00	21.8	21.8	21.8	56	8.5	3	7	270	0.00	30.119 
00:05	21.8	21.8	21.8	56	8.5	3	7	248	0.00	30.119 
00:10	21.8	21.8	21.8	57	8.9	3	6	270	0.00	30.119 
00:15	21.8	16.3	21.8	57	8.9	4	9	270	0.00	30.120 
00:20	21.8	15.1	21.8	56	8.5	5	10	270	0.00	30.120 
00:25	21.8	16.3	21.8	56	8.5	4	9	270	0.00	30.120 
00:30	21.8	16.3	21.8	57	8.9	4	7	270	0.00	30.123 
00:35	21.6	16.1	21.6	58	9.1	4	10	270	0.00	30.123 
00:40	21.4	15.8	21.4	58	8.9	4	9	248	0.00	30.123 
00:45	21.3	15.7	21.3	56	8.1	4	12	270	0.00	30.126 
00:50	21.1	21.1	21.1	55	7.5	3	7	270	0.00	30.126 
00:55	20.8	13.9	20.8	54	6.8	5	12	270	0.00	30.126 
01:00	20.5	20.5	20.5	55	6.9	3	6	270	0.00	30.126 
01:05	20.3	20.3	20.3	55	6.7	3	7	270	0.00	30.126 
01:10	20.2	20.2	20.2	55	6.7	3	10	270	0.00	30.126 
01:15	20.0	20.0	20.0	56	6.9	3	7	292	0.00	30.129 
01:20	19.9	19.9	19.9	56	6.8	3	7	270	0.00	30.129 
01:25	19.9	19.9	19.9	57	7.2	3	5	248	0.00	30.129 
01:30	19.7	19.7	19.7	58	7.3	3	6	248	0.00	30.139 
01:35	19.7	19.7	19.7	59	7.7	3	5	270	0.00	30.139 
01:40	19.7	19.7	19.7	60	8.1	2	4	270	0.00	30.139 
01:45	19.5	19.5	19.5	59	7.5	3	6	270	0.00	30.139 
01:50	19.4	19.4	19.4	59	7.4	3	6	270	0.00	30.139 
01:55	19.2	13.3	19.2	58	6.9	4	10	248	0.00	30.139 
02:00	19.1	13.2	19.1	58	6.8	4	7	270	0.00	30.141 
02:05	19.1	13.2	19.1	58	6.8	4	7	248	0.00	30.141 
02:10	18.9	18.9	18.9	58	6.6	3	6	270	0.00	30.141 
02:15	18.8	12.8	18.8	58	6.5	4	10	248	0.00	30.147 
02:20	18.8	18.8	18.8	58	6.5	2	5	248	0.00	30.147 
02:25	18.6	18.6	18.6	58	6.3	3	6	248	0.00	30.147 
02:30	18.6	18.6	18.6	59	6.7	2	6	248	0.00	30.147 
02:35	18.4	18.4	18.4	60	6.9	1	4	248	0.00	30.147 
02:40	18.3	18.3	18.3	61	7.1	2	6	248	0.00	30.147 
02:45	18.3	18.3	18.3	61	7.1	3	5	248	0.00	30.151 
02:50	18.3	18.3	18.3	60	6.8	3	9	270	0.00	30.151 
02:55	18.3	18.3	18.3	60	6.8	2	7	270	0.00	30.151 
03:00	18.1	18.1	18.1	61	6.9	1	5	248	0.00	30.161 
03:05	18.1	18.1	18.1	61	6.9	2	5	270	0.00	30.161 
03:10	18.1	18.1	18.1	60	6.6	2	5	248	0.00	30.161 
03:15	18.0	18.0	18.0	60	6.5	3	6	248	0.00	30.168 
03:20	18.0	18.0	18.0	60	6.5	2	4	248	0.00	30.168 
03:25	18.0	18.0	18.0	61	6.9	2	5	248	0.00	30.168 
03:30	17.8	17.8	17.8	61	6.7	2	5	270	0.00	30.177 
03:35	17.8	17.8	17.8	61	6.7	2	5	248	0.00	30.177 
03:40	17.7	17.7	17.7	62	6.9	1	2	248	0.00	30.177 
03:45	17.5	17.5	17.5	63	7.1	1	5	248	0.00	30.179 
03:50	17.5	17.5	17.5	63	7.1	2	7	248	0.00	30.179 
03:55	17.5	17.5	17.5	64	7.4	1	3	248	0.00	30.179 
04:00	17.3	17.3	17.3	64	7.2	2	5	248	0.00	30.181 
04:05	17.3	17.3	17.3	64	7.2	2	4	248	0.00	30.181 
04:10	17.3	17.3	17.3	64	7.2	2	4	248	0.00	30.181 
04:15	17.3	17.3	17.3	64	7.2	1	4	248	0.00	30.184 
04:20	17.2	17.2	17.2	64	7.1	1	3	248	0.00	30.184 
04:25	17.2	17.2	17.2	65	7.5	1	4	248	0.00	30.184 
04:30	17.0	17.0	17.0	65	7.3	2	4	248	0.00	30.169 
04:35	17.0	17.0	17.0	65	7.3	2	5	248	0.00	30.169 
04:40	17.0	17.0	17.0	65	7.3	1	4	248	0.00	30.169 
04:45	17.0	17.0	17.0	65	7.3	1	2	248	0.00	30.173 
04:50	16.9	16.9	16.9	66	7.5	1	3	248	0.00	30.173 
04:55	16.9	16.9	16.9	66	7.5	2	4	248	0.00	30.173 
05:00	16.9	16.9	16.9	66	7.5	1	3	225	0.00	30.179 
05:05	16.7	16.7	16.7	66	7.3	1	4	225	0.00	30.179 
05:10	16.7	16.7	16.7	67	7.7	1	4	248	0.00	30.179 
05:15	16.7	16.7	16.7	67	7.7	1	4	248	0.00	30.172 
05:20	16.7	16.7	16.7	67	7.7	1	3	248	0.00	30.172 
05:25	16.5	16.5	16.5	67	7.5	1	4	248	0.00	30.172 
05:30	16.5	16.5	16.5	68	7.8	1	2	202	0.00	30.176 
05:35	16.4	16.4	16.4	68	7.7	0	2	202	0.00	30.176 
05:40	16.4	16.4	16.4	68	7.7	1	5	248	0.00	30.176 
05:45	16.4	16.4	16.4	68	7.7	1	4	248	0.00	30.184 
05:50	16.4	16.4	16.4	68	7.7	2	6	248	0.00	30.184 
05:55	16.4	16.4	16.4	67	7.4	2	3	270	0.00	30.184 
06:00	16.4	16.4	16.4	67	7.4	1	3	270	0.00	30.186 
06:05	16.2	16.2	16.2	67	7.2	1	3	248	0.00	30.186 
06:10	16.2	16.2	16.2	68	7.5	0	3	248	0.00	30.186 
06:15	16.1	16.1	16.1	68	7.4	1	4	248	0.00	30.188 
06:20	16.1	16.1	16.1	68	7.4	1	3	248	0.00	30.188 
06:25	16.1	16.1	16.1	69	7.8	0	2	248	0.00	30.188 
06:30	16.1	16.1	16.1	69	7.8	1	2	248	0.00	30.192 
06:35	15.9	15.9	15.9	69	7.6	0	2	248	0.00	30.192 
06:40	15.9	15.9	15.9	70	7.9	1	4	248	0.00	30.192 
06:45	15.9	15.9	15.9	70	7.9	1	3	248	0.00	30.193 
06:50	15.9	15.9	15.9	70	7.9	1	3	248	0.00	30.193 
06:55	15.9	15.9	15.9	70	7.9	1	3	248	0.00	30.193 
07:00	15.9	15.9	15.9	70	7.9	1	3	248	0.00	30.200 
07:05	15.7	15.7	15.7	70	7.7	0	2	248	0.00	30.200 
07:10	15.7	15.7	15.7	70	7.7	1	2	248	0.00	30.200 
07:15	15.7	15.7	15.7	71	8.0	1	5	248	0.00	30.205 
07:20	15.7	15.7	15.7	71	8.0	1	3	248	0.00	30.205 
07:25	15.6	15.6	15.6	71	7.9	0	2	248	0.00	30.205 
07:30	15.6	15.6	15.6	71	7.9	1	3	248	0.00	30.208 
07:35	15.6	15.6	15.6	71	7.9	1	4	248	0.00	30.208 
07:40	15.6	15.6	15.6	71	7.9	1	4	248	0.00	30.208 
07:45	15.6	15.6	15.6	72	8.2	1	4	248	0.00	30.213 
07:50	15.4	15.4	15.4	72	8.0	1	4	248	0.00	30.213 
07:55	15.4	15.4	15.4	72	8.0	1	4	248	0.00	30.213 
08:00	15.4	15.4	15.4	72	8.0	1	4	248	0.00	30.218 
08:05	15.4	15.4	15.4	72	8.0	1	4	248	0.00	30.218 
08:10	15.4	15.4	15.4	72	8.0	1	6	248	0.00	30.218 
08:15	15.4	15.4	15.4	72	8.0	1	5	225	0.00	30.222 
08:20	15.4	15.4	15.4	72	8.0	1	3	248	0.00	30.222 
08:25	15.4	15.4	15.4	72	8.0	1	2	248	0.00	30.222 
08:30	15.4	15.4	15.4	73	8.3	1	4	248	0.00	30.223 
08:35	15.4	15.4	15.4	72	8.0	2	3	248	0.00	30.223 
08:40	15.6	15.6	15.6	72	8.2	1	5	248	0.00	30.223 
08:45	15.6	15.6	15.6	73	8.5	1	3	248	0.00	30.223 
08:50	15.7	15.7	15.7	73	8.6	1	3	248	0.00	30.223 
08:55	15.9	15.9	15.9	72	8.5	2	4	248	0.00	30.223 
09:00	16.1	16.1	16.1	72	8.7	1	3	248	0.00	30.228 
09:05	16.1	16.1	16.1	72	8.7	2	3	248	0.00	30.228 
09:10	16.2	16.2	16.2	72	8.8	2	5	248	0.00	30.228 
09:15	16.4	16.4	16.4	72	9.0	1	4	248	0.00	30.232 
09:20	16.4	16.4	16.4	71	8.7	1	4	270	0.00	30.232 
09:25	16.4	16.4	16.4	70	8.4	3	5	248	0.00	30.232 
09:30	16.4	16.4	16.4	69	8.0	3	5	248	0.00	30.235 
09:35	16.4	16.4	16.4	69	8.0	2	6	270	0.00	30.235 
09:40	16.5	16.5	16.5	69	8.1	2	5	270	0.00	30.235 
09:45	16.7	16.7	16.7	69	8.3	2	4	270	0.00	30.238 
09:50	16.9	16.9	16.9	69	8.5	2	3	248	0.00	30.238 
09:55	17.0	17.0	17.0	68	8.3	2	4	270	0.00	30.238 
10:00	17.2	17.2	17.2	68	8.5	2	4	270	0.00	30.246 
10:05	17.5	17.5	17.5	68	8.8	2	5	270	0.00	30.246 
10:10	17.7	17.7	17.7	67	8.6	2	4	292	0.00	30.246 
10:15	17.8	17.8	17.8	67	8.7	3	6	248	0.00	30.250 
10:20	18.0	18.0	18.0	67	8.9	3	7	248	0.00	30.250 
10:25	18.3	18.3	18.3	67	9.2	2	6	270	0.00	30.250 
10:30	18.4	18.4	18.4	66	9.0	2	4	248	0.00	30.252 
10:35	18.6	18.6	18.6	66	9.2	2	4	270	0.00	30.252 
10:40	18.3	18.3	18.3	65	8.5	2	5	270	0.00	30.252 
10:45	18.0	18.0	18.0	65	8.3	2	5	270	0.00	30.261 
10:50	17.8	17.8	17.8	65	8.1	2	3	225	0.00	30.261 
10:55	17.8	17.8	17.8	65	8.1	2	5	338	0.00	30.261 
11:00	17.8	17.8	17.8	65	8.1	2	4	270	0.00	30.263 
11:05	17.8	17.8	17.8	65	8.1	1	4	270	0.00	30.263 
11:10	18.0	18.0	18.0	65	8.3	2	5	248	0.00	30.263 
11:15	18.3	18.3	18.3	65	8.5	1	4	248	0.00	30.256 
11:20	18.8	18.8	18.8	65	9.0	1	4	225	0.00	30.256 
11:25	18.9	18.9	18.9	64	8.8	1	3	225	0.00	30.256 
11:30	19.2	19.2	19.2	64	9.0	2	5	270	0.00	30.258 
11:35	19.5	19.5	19.5	64	9.3	2	4	248	0.00	30.258 
11:40	19.7	19.7	19.7	63	9.2	1	4	248	0.00	30.258 
11:45	20.0	20.0	20.0	62	9.1	2	4	248	0.00	30.251 
11:50	20.3	20.3	20.3	62	9.4	2	6	248	0.00	30.251 
11:55	20.3	20.3	20.3	62	9.4	1	3	248	0.00	30.251 
12:00	20.6	20.6	20.6	61	9.3	2	4	225	0.00	30.250 
12:05	20.8	20.8	20.8	60	9.1	2	6	225	0.00	30.250 
12:10	20.8	20.8	20.8	61	9.5	2	6	248	0.00	30.250 
12:15	20.8	20.8	20.8	61	9.5	1	5	248	0.00	30.242 
12:20	21.1	21.1	21.1	61	9.8	2	5	248	0.00	30.242 
12:25	21.1	21.1	21.1	60	9.4	2	6	248	0.00	30.242 
12:30	21.6	21.6	21.6	60	9.9	2	4	270	0.00	30.245 
12:35	22.1	22.1	22.1	59	10.0	1	5	248	0.00	30.245 
12:40	22.2	22.2	22.2	58	9.7	3	7	248	0.00	30.245 
12:45	22.4	22.4	22.4	59	10.3	2	5	248	0.00	30.242 
12:50	22.7	22.7	22.7	58	10.2	2	4	248	0.00	30.242 
12:55	22.9	22.9	22.9	57	10.0	3	5	248	0.00	30.242 
13:00	23.0	23.0	23.0	57	10.1	3	5	270	0.00	30.235 
13:05	23.2	23.2	23.2	57	10.3	2	7	270	0.00	30.235 
13:10	23.5	23.5	23.5	57	10.5	1	6	225	0.00	30.235 
13:15	23.9	23.9	23.9	56	10.5	2	5	248	0.00	30.235 
13:20	23.9	23.9	23.9	54	9.7	3	5	270	0.00	30.235 
13:25	23.9	23.9	23.9	55	10.1	2	5	270	0.00	30.235 
13:30	24.2	24.2	24.2	55	10.4	2	6	248	0.00	30.233 
13:35	24.5	24.5	24.5	54	10.3	2	7	248	0.00	30.233 
13:40	24.4	24.4	24.4	54	10.2	3	10	225	0.00	30.233 
13:45	24.7	24.7	24.7	53	10.0	2	5	292	0.00	30.228 
13:50	24.8	24.8	24.8	52	9.7	3	7	248	0.00	30.228 
13:55	24.8	24.8	24.8	52	9.7	3	10	270	0.00	30.228 
14:00	24.7	24.7	24.7	52	9.6	3	10	248	0.00	30.228 
14:05	25.1	25.1	25.1	50	9.1	3	6	270	0.00	30.228 
14:10	25.3	25.3	25.3	50	9.3	3	4	270	0.00	30.228 
14:15	25.6	25.6	25.6	51	10.0	2	6	248	0.00	30.228 
14:20	25.7	25.7	25.7	50	9.7	3	7	270	0.00	30.228 
14:25	25.6	20.7	25.6	50	9.6	4	7	248	0.00	30.228 
14:30	25.6	20.7	25.6	49	9.1	4	9	248	0.00	30.230 
14:35	25.6	25.6	25.6	50	9.6	3	7	248	0.00	30.230 
14:40	25.7	20.8	25.7	49	9.2	4	8	270	0.00	30.230 
14:45	25.7	25.7	25.7	49	9.2	3	5	248	0.00	30.227 
14:50	26.0	26.0	26.0	48	9.0	3	6	225	0.00	30.227 
14:55	26.0	21.1	26.0	47	8.6	4	10	248	0.00	30.227 
15:00	26.1	26.1	26.1	47	8.7	3	9	248	0.00	30.225 
15:05	26.0	20.0	26.0	47	8.6	5	10	270	0.00	30.225 
15:10	26.0	26.0	26.0	48	9.0	3	6	248	0.00	30.225 
15:15	26.1	26.1	26.1	47	8.7	2	5	248	0.00	30.230 
15:20	26.3	26.3	26.3	46	8.4	2	5	270	0.00	30.230 
15:25	26.3	26.3	26.3	46	8.4	3	6	270	0.00	30.230 
15:30	26.3	26.3	26.3	46	8.4	3	10	270	0.00	30.232 
15:35	26.4	26.4	26.4	45	8.0	3	7	248	0.00	30.232 
15:40	26.7	26.7	26.7	45	8.2	2	5	225	0.00	30.232 
15:45	26.9	26.9	26.9	44	7.9	2	4	248	0.00	30.231 
15:50	27.0	27.0	27.0	44	8.0	2	4	248	0.00	30.231 
15:55	27.0	27.0	27.0	42	7.0	3	6	248	0.00	30.231 
16:00	27.0	27.0	27.0	44	8.0	2	6	248	0.00	30.232 
16:05	26.6	26.6	26.6	43	7.2	3	7	270	0.00	30.232 
16:10	26.4	26.4	26.4	43	7.0	3	7	248	0.00	30.232 
16:15	26.3	26.3	26.3	43	6.9	3	10	248	0.00	30.235 
16:20	26.0	26.0	26.0	43	6.6	3	5	248	0.00	30.235 
16:25	26.0	26.0	26.0	43	6.6	3	7	248	0.00	30.235 
16:30	25.8	25.8	25.8	44	6.9	3	6	270	0.00	30.241 
16:35	25.7	25.7	25.7	44	6.8	2	6	248	0.00	30.241 
16:40	25.7	25.7	25.7	45	7.3	3	5	225	0.00	30.241 
16:45	25.4	20.5	25.4	44	6.6	4	7	270	0.00	30.247 
16:50	25.3	25.3	25.3	45	7.0	3	9	248	0.00	30.247 
16:55	25.1	25.1	25.1	46	7.3	3	10	248	0.00	30.247 
17:00	25.0	25.0	25.0	46	7.2	1	5	248	0.00	30.244 
17:05	24.8	24.8	24.8	46	7.0	2	6	248	0.00	30.244 
17:10	24.7	24.7	24.7	46	6.9	2	5	248	0.00	30.244 
17:15	24.5	24.5	24.5	47	7.2	3	9	248	0.00	30.245 
17:20	24.2	24.2	24.2	48	7.4	1	5	248	0.00	30.245 
17:25	24.1	24.1	24.1	48	7.3	2	7	248	0.00	30.245 
17:30	23.9	23.9	23.9	48	7.1	2	6	248	0.00	30.248 
17:35	23.9	23.9	23.9	48	7.1	2	4	248	0.00	30.248 
17:40	23.8	23.8	23.8	49	7.5	2	4	248	0.00	30.248 
17:45	23.6	23.6	23.6	49	7.3	2	5	248	0.00	30.250 
17:50	23.6	23.6	23.6	49	7.3	2	5	248	0.00	30.250 
17:55	23.5	23.5	23.5	50	7.6	2	5	248	0.00	30.250 
18:00	23.5	23.5	23.5	50	7.6	2	6	248	0.00	30.254 
18:05	23.5	23.5	23.5	50	7.6	2	4	248	0.00	30.254 
18:10	23.3	23.3	23.3	50	7.4	1	4	248	0.00	30.254 
18:15	23.3	23.3	23.3	51	7.9	1	3	248	0.00	30.265 
18:20	23.2	23.2	23.2	51	7.8	2	5	248	0.00	30.265 
18:25	23.2	23.2	23.2	51	7.8	0	2	248	0.00	30.265 
18:30	23.0	23.0	23.0	52	8.0	0	3	248	0.00	30.266 
18:35	22.9	22.9	22.9	52	7.9	1	2	248	0.00	30.266 
18:40	22.9	22.9	22.9	53	8.4	0	2	248	0.00	30.266 
18:45	22.7	22.7	22.7	53	8.2	0	4	248	0.00	30.269 
18:50	22.7	22.7	22.7	53	8.2	1	3	248	0.00	30.269 
18:55	22.5	22.5	22.5	54	8.4	0	2	248	0.00	30.269 
19:00	22.4	22.4	22.4	54	8.3	0	2	248	0.00	30.268 
19:05	22.2	22.2	22.2	54	8.1	0	0	---	0.00	30.268 
19:10	22.1	22.1	22.1	55	8.4	0	2	248	0.00	30.268 
19:15	21.9	21.9	21.9	55	8.2	0	2	248	0.00	30.270 
19:20	21.9	21.9	21.9	56	8.6	0	4	248	0.00	30.270 
19:25	21.8	21.8	21.8	56	8.5	0	2	248	0.00	30.270 
19:30	21.8	21.8	21.8	57	8.9	0	1	248	0.00	30.268 
19:35	21.8	21.8	21.8	57	8.9	0	2	248	0.00	30.268 
19:40	21.6	21.6	21.6	58	9.1	0	2	248	0.00	30.268 
19:45	21.4	21.4	21.4	58	8.9	0	2	248	0.00	30.269 
19:50	21.3	21.3	21.3	58	8.9	0	1	248	0.00	30.269 
19:55	21.1	21.1	21.1	59	9.0	0	1	248	0.00	30.269 
20:00	21.1	21.1	21.1	59	9.0	0	2	248	0.00	30.266 
20:05	21.0	21.0	21.0	60	9.3	0	1	248	0.00	30.266 
20:10	20.8	20.8	20.8	60	9.1	0	2	248	0.00	30.266 
20:15	20.8	20.8	20.8	61	9.5	0	1	248	0.00	30.264 
20:20	20.8	20.8	20.8	61	9.5	0	2	248	0.00	30.264 
20:25	20.8	20.8	20.8	62	9.9	0	1	248	0.00	30.264 
20:30	20.8	20.8	20.8	62	9.9	0	0	---	0.00	30.264 
20:35	20.8	20.8	20.8	62	9.9	0	2	248	0.00	30.264 
20:40	20.8	20.8	20.8	63	10.2	0	3	248	0.00	30.264 
20:45	20.8	20.8	20.8	63	10.2	0	3	248	0.00	30.258 
20:50	20.8	20.8	20.8	63	10.2	0	1	248	0.00	30.258 
20:55	20.8	20.8	20.8	63	10.2	0	2	248	0.00	30.258 
21:00	20.8	20.8	20.8	63	10.2	0	2	248	0.00	30.257 
21:05	21.0	21.0	21.0	63	10.4	1	4	248	0.00	30.257 
21:10	20.8	20.8	20.8	64	10.6	0	2	248	0.00	30.257 
21:15	20.8	20.8	20.8	64	10.6	0	2	248	0.00	30.255 
21:20	20.8	20.8	20.8	64	10.6	0	1	248	0.00	30.255 
21:25	20.6	20.6	20.6	65	10.7	0	3	248	0.00	30.255 
21:30	20.6	20.6	20.6	65	10.7	0	4	248	0.00	30.258 
21:35	20.6	20.6	20.6	65	10.7	0	2	248	0.00	30.258 
21:40	20.6	20.6	20.6	65	10.7	0	1	248	0.00	30.258 
21:45	20.5	20.5	20.5	65	10.6	0	2	248	0.00	30.254 
21:50	20.5	20.5	20.5	65	10.6	0	2	248	0.00	30.254 
21:55	20.5	20.5	20.5	66	11.0	0	1	248	0.00	30.254 
22:00	20.5	20.5	20.5	66	11.0	0	2	248	0.00	30.255 
22:05	20.5	20.5	20.5	66	11.0	0	2	248	0.00	30.255 
22:10	20.5	20.5	20.5	66	11.0	0	2	248	0.00	30.255 
22:15	20.5	20.5	20.5	66	11.0	0	2	248	0.00	30.259 
22:20	20.3	20.3	20.3	67	11.1	0	2	248	0.00	30.259 
22:25	20.3	20.3	20.3	67	11.1	0	3	248	0.00	30.259 
22:30	20.3	20.3	20.3	67	11.1	0	2	248	0.00	30.255 
22:35	20.3	20.3	20.3	67	11.1	0	2	248	0.00	30.255 
22:40	20.2	20.2	20.2	67	11.0	0	2	248	0.00	30.255 
22:45	20.2	20.2	20.2	68	11.4	0	1	248	0.00	30.254 
22:50	20.0	20.0	20.0	68	11.2	0	1	248	0.00	30.254 
22:55	19.9	19.9	19.9	69	11.4	0	2	248	0.00	30.254 
23:00	19.9	19.9	19.9	69	11.4	0	2	248	0.00	30.253 
23:05	20.0	20.0	20.0	69	11.5	0	1	248	0.00	30.253 
23:10	19.9	19.9	19.9	69	11.4	0	2	248	0.00	30.253 
23:15	19.9	19.9	19.9	69	11.4	0	2	248	0.00	30.254 
23:20	19.9	19.9	19.9	69	11.4	0	2	248	0.00	30.254 
23:25	20.0	20.0	20.0	69	11.5	0	2	248	0.00	30.254 
23:30	20.0	20.0	20.0	69	11.5	0	2	248	0.00	30.264 
23:35	20.0	20.0	20.0	69	11.5	0	2	248	0.00	30.264 
23:40	20.2	20.2	20.2	69	11.7	0	3	248	0.00	30.264 
23:45	20.2	20.2	20.2	69	11.7	1	3	248	0.00	30.264 
23:50	20.3	20.3	20.3	69	11.8	1	3	248	0.00	30.264 
23:55	20.3	20.3	20.3	69	11.8	1	3	248	0.00	30.264 

CoCoRaHS
IN-AL-39
A2 Web Hosting
Creative Commons License
GoDaddy
search engine by freefind advanced

loaded 2018-12-19 10:18:18 • last modified 2010-11-18 10:43:29
Privacy PolicyDisclaimer
• wx.awcolley.com is powered by PmWiki v.2002016 •
• all content (unless otherwise noted) © 2018 A W Colley